createdAt,value
2019-03-28T00:02:28.273Z,7.74
2019-03-28T00:04:56.742Z,7.76
2019-03-28T00:07:25.279Z,7.63
2019-03-28T00:09:53.786Z,7.87
2019-03-28T00:12:22.269Z,7.82
2019-03-28T00:14:50.766Z,7.84
2019-03-28T00:17:19.235Z,8.06
2019-03-28T00:19:47.714Z,8.16
2019-03-28T00:22:17.853Z,8.13
2019-03-28T00:24:56.984Z,8.27
2019-03-28T00:27:25.448Z,8.19
2019-03-28T00:29:54.338Z,7.98
2019-03-28T00:32:23.016Z,7.63
2019-03-28T00:34:51.485Z,7.57
2019-03-28T00:37:19.979Z,7.66
2019-03-28T00:39:48.450Z,7.48
2019-03-28T00:42:17.064Z,7.22
2019-03-28T00:44:45.537Z,7.14
2019-03-28T00:47:14.011Z,6.97
2019-03-28T00:49:43.194Z,6.99
2019-03-28T00:52:11.765Z,7.11
2019-03-28T00:54:40.228Z,7.17
2019-03-28T00:57:08.709Z,7.17
2019-03-28T00:59:37.177Z,7.20
2019-03-28T01:02:05.643Z,7.25
2019-03-28T01:04:34.130Z,7.34
2019-03-28T01:07:02.627Z,7.44
2019-03-28T01:09:31.385Z,6.99
2019-03-28T01:12:00.074Z,7.11
2019-03-28T01:14:28.554Z,7.57
2019-03-28T01:16:57.029Z,7.55
2019-03-28T01:19:25.528Z,7.54
2019-03-28T01:21:53.995Z,7.08
2019-03-28T01:24:22.494Z,7.02
2019-03-28T01:26:57.140Z,7.10
2019-03-28T01:29:21.171Z,6.83
2019-03-28T01:31:49.670Z,7.27
2019-03-28T01:34:18.155Z,7.05
2019-03-28T01:36:46.650Z,7.21
2019-03-28T01:39:15.110Z,7.67
2019-03-28T01:41:43.581Z,7.59
2019-03-28T01:44:12.054Z,7.80
2019-03-28T01:46:40.721Z,7.63
2019-03-28T01:49:09.185Z,7.18
2019-03-28T01:51:37.664Z,7.16
2019-03-28T01:54:06.144Z,7.02
2019-03-28T01:56:34.696Z,6.79
2019-03-28T01:59:03.238Z,7.03
2019-03-28T02:01:31.707Z,7.49
2019-03-28T02:04:00.202Z,7.50
2019-03-28T02:06:28.666Z,7.52
2019-03-28T02:08:57.132Z,7.14
2019-03-28T02:11:25.627Z,7.39
2019-03-28T02:13:54.127Z,6.98
2019-03-28T02:16:22.635Z,6.73
2019-03-28T02:18:51.087Z,6.76
2019-03-28T02:21:19.590Z,6.89
2019-03-28T02:23:48.085Z,6.69
2019-03-28T02:26:16.588Z,6.58
2019-03-28T02:28:45.051Z,6.54
2019-03-28T02:31:13.556Z,6.68
2019-03-28T02:33:42.020Z,6.87
2019-03-28T02:36:10.497Z,6.57
2019-03-28T02:38:38.990Z,6.50
2019-03-28T02:41:08.667Z,6.47
2019-03-28T02:43:37.429Z,6.35
2019-03-28T02:46:05.934Z,6.38
2019-03-28T02:48:34.395Z,5.81
2019-03-28T02:51:03.749Z,5.98
2019-03-28T02:53:32.704Z,5.99
2019-03-28T02:56:01.206Z,5.96
2019-03-28T02:58:29.668Z,5.84
2019-03-28T03:00:58.165Z,5.84
2019-03-28T03:03:26.660Z,5.58
2019-03-28T03:05:55.136Z,5.63
2019-03-28T03:08:23.625Z,5.66
2019-03-28T03:10:52.122Z,5.89
2019-03-28T03:13:20.603Z,6.00
2019-03-28T03:15:49.068Z,6.26
2019-03-28T03:18:21.233Z,6.35
2019-03-28T03:20:47.808Z,6.64
2019-03-28T03:23:16.324Z,6.61
2019-03-28T03:25:44.791Z,6.45
2019-03-28T03:28:13.268Z,6.27
2019-03-28T03:30:41.753Z,6.15
2019-03-28T03:33:10.212Z,6.36
2019-03-28T03:35:38.689Z,6.38
2019-03-28T03:38:07.166Z,6.62
2019-03-28T03:40:35.662Z,6.74
2019-03-28T03:43:04.197Z,6.91
2019-03-28T03:45:32.681Z,6.61
2019-03-28T03:48:01.146Z,6.51
2019-03-28T03:50:30.281Z,6.62
2019-03-28T03:52:58.930Z,6.28
2019-03-28T03:55:27.404Z,5.95
2019-03-28T03:58:13.291Z,5.95
2019-03-28T04:00:32.437Z,6.25
2019-03-28T04:03:02.984Z,6.61
2019-03-28T04:05:32.102Z,6.51
2019-03-28T04:08:00.760Z,6.24
2019-03-28T04:10:29.302Z,6.19
2019-03-28T04:12:57.960Z,6.07
2019-03-28T04:15:26.489Z,6.12
2019-03-28T04:17:55.115Z,6.12
2019-03-28T04:20:24.870Z,6.39
2019-03-28T04:22:53.809Z,6.41
2019-03-28T04:25:22.359Z,6.36
2019-03-28T04:27:50.918Z,6.76
2019-03-28T04:30:19.563Z,7.20
2019-03-28T04:32:48.085Z,7.03
2019-03-28T04:35:16.606Z,6.56
2019-03-28T04:37:45.171Z,6.13
2019-03-28T04:40:14.032Z,5.98
2019-03-28T04:42:45.557Z,6.20
2019-03-28T04:45:13.003Z,6.20
2019-03-28T04:47:41.604Z,6.07
2019-03-28T04:50:10.580Z,6.22
2019-03-28T04:52:39.159Z,6.99
2019-03-28T04:55:08.177Z,7.18
2019-03-28T04:57:36.696Z,7.49
2019-03-28T05:00:09.609Z,7.72
2019-03-28T05:02:38.277Z,7.93
2019-03-28T05:05:07.774Z,7.76
2019-03-28T05:07:36.295Z,7.72
2019-03-28T05:10:08.099Z,7.50
2019-03-28T05:12:36.725Z,7.72
2019-03-28T05:15:10.324Z,7.82
2019-03-28T05:17:39.006Z,7.70
2019-03-28T05:20:08.116Z,7.63
2019-03-28T05:22:36.764Z,7.43
2019-03-28T05:25:07.256Z,7.44
2019-03-28T05:27:35.899Z,7.79
2019-03-28T05:30:08.834Z,7.82
2019-03-28T05:32:37.350Z,8.02
2019-03-28T05:35:07.922Z,7.94
2019-03-28T05:37:36.713Z,7.94
2019-03-28T05:40:07.413Z,8.04
2019-03-28T05:42:35.931Z,8.17
2019-03-28T05:45:06.731Z,7.99
2019-03-28T05:47:35.491Z,8.03
2019-03-28T05:50:05.451Z,7.99
2019-03-28T05:52:33.947Z,8.00
2019-03-28T05:55:05.247Z,8.07
2019-03-28T05:57:32.642Z,6.98
2019-03-28T06:00:01.126Z,7.30
2019-03-28T06:02:29.616Z,7.50
2019-03-28T06:04:58.081Z,7.69
2019-03-28T06:07:26.645Z,7.66
2019-03-28T06:09:55.125Z,8.02
2019-03-28T06:12:23.679Z,8.09
2019-03-28T06:14:52.157Z,8.33
2019-03-28T06:17:20.659Z,8.22
2019-03-28T06:19:50.102Z,8.52
2019-03-28T06:22:18.671Z,8.76
2019-03-28T06:24:47.144Z,8.88
2019-03-28T06:27:15.624Z,8.76
2019-03-28T06:29:44.090Z,8.09
2019-03-28T06:32:12.576Z,7.64
2019-03-28T06:34:41.051Z,7.44
2019-03-28T06:37:09.537Z,7.46
2019-03-28T06:39:38.057Z,7.86
2019-03-28T06:42:06.553Z,7.93
2019-03-28T06:44:35.037Z,8.15
2019-03-28T06:47:03.518Z,8.34
2019-03-28T06:49:31.997Z,8.39
2019-03-28T06:52:00.465Z,8.53
2019-03-28T06:54:28.974Z,8.72
2019-03-28T06:56:57.444Z,8.98
2019-03-28T06:59:36.778Z,8.74
2019-03-28T07:01:56.213Z,8.45
2019-03-28T07:04:25.997Z,8.43
2019-03-28T07:06:54.488Z,8.77
2019-03-28T07:09:22.982Z,8.64
2019-03-28T07:11:51.493Z,8.27
2019-03-28T07:14:19.978Z,8.39
2019-03-28T07:16:48.463Z,7.85
2019-03-28T07:19:17.055Z,8.24
2019-03-28T07:21:45.601Z,8.34
2019-03-28T07:24:14.116Z,8.42
2019-03-28T07:26:42.607Z,8.27
2019-03-28T07:29:11.173Z,8.47
2019-03-28T07:31:40.512Z,8.92
2019-03-28T07:34:09.160Z,9.19
2019-03-28T07:36:37.709Z,9.44
2019-03-28T07:39:07.438Z,9.27
2019-03-28T07:41:35.918Z,9.79
2019-03-28T07:44:04.693Z,9.61
2019-03-28T07:46:33.200Z,9.81
2019-03-28T07:49:01.755Z,9.45
2019-03-28T07:51:30.253Z,9.28
2019-03-28T07:53:58.754Z,9.51
2019-03-28T07:56:27.249Z,9.54
2019-03-28T07:58:55.767Z,9.54
2019-03-28T08:01:24.315Z,9.30
2019-03-28T08:03:52.805Z,9.20
2019-03-28T08:06:21.319Z,9.08
2019-03-28T08:08:49.807Z,8.72
2019-03-28T08:11:18.410Z,9.21
2019-03-28T08:13:46.953Z,9.32
2019-03-28T08:16:15.454Z,9.40
2019-03-28T08:18:43.953Z,9.06
2019-03-28T08:21:12.434Z,9.43
2019-03-28T08:23:40.956Z,9.82
2019-03-28T08:26:09.780Z,10.00
2019-03-28T08:28:38.415Z,9.69
2019-03-28T08:31:06.915Z,10.07
2019-03-28T08:33:37.801Z,9.39
2019-03-28T08:36:06.539Z,9.26
2019-03-28T08:38:38.073Z,9.75
2019-03-28T08:41:07.255Z,10.23
2019-03-28T08:43:36.169Z,9.87
2019-03-28T08:46:04.816Z,9.73
2019-03-28T08:48:33.396Z,9.72
2019-03-28T08:51:01.961Z,9.93
2019-03-28T08:53:30.447Z,9.92
2019-03-28T08:55:58.942Z,9.75
2019-03-28T08:58:27.463Z,9.87
2019-03-28T09:00:55.942Z,9.56
2019-03-28T09:03:24.510Z,9.46
2019-03-28T09:05:53.036Z,9.70
2019-03-28T09:08:21.526Z,10.02
2019-03-28T09:10:50.029Z,10.28
2019-03-28T09:13:18.604Z,10.41
2019-03-28T09:15:47.128Z,10.57
2019-03-28T09:18:15.614Z,10.66
2019-03-28T09:20:44.145Z,10.82
2019-03-28T09:23:12.626Z,10.83
2019-03-28T09:25:41.146Z,10.89
2019-03-28T09:28:09.656Z,10.49
2019-03-28T09:30:48.143Z,11.06
2019-03-28T09:33:10.499Z,11.12
2019-03-28T09:35:39.118Z,11.04
2019-03-28T09:38:07.836Z,11.17
2019-03-28T09:40:36.324Z,11.18
2019-03-28T09:43:05.346Z,11.25
2019-03-28T09:45:36.618Z,11.30
2019-03-28T09:48:05.269Z,11.07
2019-03-28T09:50:33.813Z,11.15
2019-03-28T09:53:02.401Z,11.45
2019-03-28T09:55:30.927Z,11.10
2019-03-28T09:57:59.422Z,11.06
2019-03-28T10:00:27.904Z,11.10
2019-03-28T10:02:56.404Z,11.06
2019-03-28T10:05:24.891Z,10.78
2019-03-28T10:07:53.395Z,11.03
2019-03-28T10:10:21.945Z,10.75
2019-03-28T10:12:50.461Z,10.83
2019-03-28T10:15:19.112Z,11.01
2019-03-28T10:17:47.600Z,11.38
2019-03-28T10:20:16.166Z,11.66
2019-03-28T10:22:44.658Z,11.68
2019-03-28T10:25:14.581Z,11.87
2019-03-28T10:27:43.173Z,12.23
2019-03-28T10:30:12.607Z,12.20
2019-03-28T10:32:41.258Z,12.64
2019-03-28T10:35:11.337Z,12.50
2019-03-28T10:37:39.820Z,12.57
2019-03-28T10:40:08.574Z,12.25
2019-03-28T10:42:37.121Z,12.18
2019-03-28T10:45:07.784Z,12.45
2019-03-28T10:47:36.272Z,12.61
2019-03-28T10:50:06.351Z,12.19
2019-03-28T10:52:34.836Z,12.21
2019-03-28T10:55:03.518Z,12.23
2019-03-28T10:57:32.429Z,11.98
2019-03-28T11:00:00.979Z,12.01
2019-03-28T11:02:29.491Z,11.70
2019-03-28T11:04:58.003Z,11.93
2019-03-28T11:07:26.489Z,12.18
2019-03-28T11:09:56.270Z,11.95
2019-03-28T11:12:24.715Z,12.00
2019-03-28T11:14:53.225Z,11.58
2019-03-28T11:17:21.892Z,11.86
2019-03-28T11:19:50.575Z,12.21
2019-03-28T11:22:19.059Z,12.41
2019-03-28T11:24:47.596Z,12.41
2019-03-28T11:27:16.080Z,12.40
2019-03-28T11:29:44.600Z,12.61
2019-03-28T11:32:13.191Z,12.81
2019-03-28T11:34:41.707Z,13.08
2019-03-28T11:37:24.972Z,12.80
2019-03-28T11:39:40.436Z,12.89
2019-03-28T11:42:09.055Z,12.62
2019-03-28T11:44:37.550Z,12.35
2019-03-28T11:47:06.039Z,12.64
2019-03-28T11:49:34.564Z,12.43
2019-03-28T11:52:03.049Z,12.60
2019-03-28T11:54:31.534Z,12.52
2019-03-28T11:57:00.116Z,12.66
2019-03-28T11:59:28.605Z,12.90
2019-03-28T12:02:02.054Z,13.06
2019-03-28T12:04:27.397Z,11.93
2019-03-28T12:06:55.913Z,10.04
2019-03-28T12:09:25.969Z,10.64
2019-03-28T12:11:54.479Z,11.03
2019-03-28T12:14:23.032Z,10.45
2019-03-28T12:16:51.532Z,10.04
2019-03-28T12:19:20.018Z,9.94
2019-03-28T12:21:48.497Z,11.18
2019-03-28T12:24:17.012Z,11.62
2019-03-28T12:26:45.499Z,10.77
2019-03-28T12:29:14.041Z,10.65
2019-03-28T12:31:42.558Z,10.69
2019-03-28T12:34:11.039Z,9.96
2019-03-28T12:36:39.528Z,9.77
2019-03-28T12:39:08.291Z,10.03
2019-03-28T12:41:36.863Z,9.47
2019-03-28T12:44:05.346Z,9.40
2019-03-28T12:46:33.868Z,9.87
2019-03-28T12:49:02.622Z,9.86
2019-03-28T12:51:31.118Z,9.67
2019-03-28T12:53:59.631Z,10.25
2019-03-28T12:56:28.114Z,10.91
2019-03-28T12:58:56.617Z,9.61
2019-03-28T13:01:25.097Z,11.18
2019-03-28T13:03:53.609Z,12.59
2019-03-28T13:06:24.150Z,13.07
2019-03-28T13:08:52.667Z,13.42
2019-03-28T13:11:21.190Z,13.46
2019-03-28T13:13:49.697Z,13.55
2019-03-28T13:16:18.184Z,13.83
2019-03-28T13:18:46.697Z,11.32
2019-03-28T13:21:15.183Z,10.58
2019-03-28T13:23:43.685Z,11.02
2019-03-28T13:26:12.168Z,10.43
2019-03-28T13:28:40.684Z,11.03
2019-03-28T13:31:09.179Z,11.82
2019-03-28T13:33:37.698Z,12.63
2019-03-28T13:36:06.269Z,13.26
2019-03-28T13:38:34.750Z,14.07
2019-03-28T13:41:03.305Z,13.42
2019-03-28T13:43:31.777Z,13.85
2019-03-28T13:46:00.925Z,13.41
2019-03-28T13:48:29.451Z,13.47
2019-03-28T13:50:57.944Z,13.45
2019-03-28T13:53:38.890Z,13.34
2019-03-28T13:55:57.700Z,13.37
2019-03-28T13:58:26.191Z,13.87
2019-03-28T14:00:56.217Z,13.94
2019-03-28T14:03:24.986Z,13.75
2019-03-28T14:05:53.481Z,14.14
2019-03-28T14:08:21.958Z,11.88
2019-03-28T14:10:50.472Z,10.15
2019-03-28T14:13:18.948Z,9.36
2019-03-28T14:15:47.457Z,9.55
2019-03-28T14:18:15.958Z,9.29
2019-03-28T14:20:44.456Z,9.07
2019-03-28T14:23:12.949Z,9.02
2019-03-28T14:25:41.419Z,9.22
2019-03-28T14:28:09.913Z,8.94
2019-03-28T14:30:39.628Z,9.20
2019-03-28T14:33:11.550Z,9.59
2019-03-28T14:35:38.683Z,9.04
2019-03-28T14:38:07.214Z,9.68
2019-03-28T14:40:35.675Z,9.52
2019-03-28T14:43:06.711Z,9.74
2019-03-28T14:45:35.813Z,10.32
2019-03-28T14:48:06.844Z,9.54
2019-03-28T14:50:36.695Z,9.76
2019-03-28T14:53:05.817Z,9.23
2019-03-28T14:55:35.343Z,8.97
2019-03-28T14:58:06.713Z,9.16
2019-03-28T15:00:47.308Z,8.69
2019-03-28T15:03:25.545Z,9.21
2019-03-28T15:05:46.833Z,9.59
2019-03-28T15:08:15.397Z,10.31
2019-03-28T15:10:43.992Z,10.48
2019-03-28T15:13:12.495Z,10.66
2019-03-28T15:15:40.983Z,11.26
2019-03-28T15:18:09.521Z,10.96
2019-03-28T15:20:38.034Z,11.64
2019-03-28T15:23:06.611Z,11.94
2019-03-28T15:25:35.094Z,12.03
2019-03-28T15:28:03.617Z,12.28
2019-03-28T15:30:32.112Z,12.54
2019-03-28T15:33:00.625Z,12.63
2019-03-28T15:35:29.186Z,12.48
2019-03-28T15:37:57.699Z,12.59
2019-03-28T15:40:26.253Z,11.69
2019-03-28T15:42:54.768Z,11.80
2019-03-28T15:45:23.269Z,12.30
2019-03-28T15:47:52.261Z,12.30
2019-03-28T15:50:20.831Z,11.62
2019-03-28T15:52:49.319Z,11.50
2019-03-28T15:55:17.821Z,12.09
2019-03-28T15:57:46.339Z,12.40
2019-03-28T16:00:15.467Z,12.40
2019-03-28T16:02:44.058Z,12.48
2019-03-28T16:05:12.652Z,11.61
2019-03-28T16:07:41.166Z,11.10
2019-03-28T16:10:10.490Z,10.85
2019-03-28T16:12:39.078Z,10.74
2019-03-28T16:15:08.304Z,10.72
2019-03-28T16:17:36.814Z,11.21
2019-03-28T16:20:06.455Z,10.14
2019-03-28T16:22:34.949Z,10.90
2019-03-28T16:25:04.140Z,10.85
2019-03-28T16:27:32.634Z,10.81
2019-03-28T16:30:01.145Z,10.18
2019-03-28T16:32:29.669Z,9.89
2019-03-28T16:34:58.326Z,10.57
2019-03-28T16:37:27.693Z,10.23
2019-03-28T16:39:56.451Z,10.24
2019-03-28T16:42:26.486Z,10.27
2019-03-28T16:44:54.999Z,11.15
2019-03-28T16:47:24.754Z,11.44
2019-03-28T16:49:53.278Z,11.55
2019-03-28T16:52:21.774Z,11.27
2019-03-28T16:54:50.293Z,11.62
2019-03-28T16:57:19.216Z,11.76
2019-03-28T16:59:48.277Z,11.89
2019-03-28T17:02:16.802Z,11.98
2019-03-28T17:04:45.288Z,11.18
2019-03-28T17:07:14.879Z,10.93
2019-03-28T17:09:43.442Z,11.11
2019-03-28T17:12:11.955Z,11.41
2019-03-28T17:14:40.478Z,11.66
2019-03-28T17:17:09.032Z,11.53
2019-03-28T17:19:37.510Z,10.83
2019-03-28T17:22:09.332Z,10.95
2019-03-28T17:24:36.229Z,11.22
2019-03-28T17:27:04.797Z,11.10
2019-03-28T17:29:33.316Z,11.14
2019-03-28T17:32:01.808Z,11.28
2019-03-28T17:34:35.236Z,11.32
2019-03-28T17:37:00.629Z,11.36
2019-03-28T17:39:29.156Z,11.33
2019-03-28T17:41:57.919Z,11.25
2019-03-28T17:44:26.556Z,11.24
2019-03-28T17:46:55.052Z,11.28
2019-03-28T17:49:23.602Z,11.33
2019-03-28T17:51:52.095Z,11.28
2019-03-28T17:54:20.652Z,11.32
2019-03-28T17:56:49.247Z,11.31
2019-03-28T17:59:17.778Z,11.34
2019-03-28T18:01:46.643Z,11.35
2019-03-28T18:04:22.823Z,11.42
2019-03-28T18:06:45.490Z,11.41
2019-03-28T18:09:13.949Z,11.54
2019-03-28T18:11:42.751Z,11.49
2019-03-28T18:14:11.240Z,11.45
2019-03-28T18:16:39.738Z,11.43
2019-03-28T18:19:08.251Z,11.41
2019-03-28T18:21:36.823Z,11.46
2019-03-28T18:24:05.329Z,11.49
2019-03-28T18:26:33.920Z,11.27
2019-03-28T18:29:03.442Z,11.09
2019-03-28T18:31:32.030Z,10.98
2019-03-28T18:34:00.550Z,10.81
2019-03-28T18:36:29.105Z,10.67
2019-03-28T18:38:57.645Z,10.47
2019-03-28T18:41:26.146Z,10.36
2019-03-28T18:43:54.673Z,10.28
2019-03-28T18:46:23.165Z,10.18
2019-03-28T18:48:51.683Z,9.96
2019-03-28T18:51:20.237Z,9.87
2019-03-28T18:53:48.771Z,9.85
2019-03-28T18:56:17.251Z,9.76
2019-03-28T18:58:45.770Z,9.67
2019-03-28T19:01:14.264Z,9.64
2019-03-28T19:03:42.814Z,9.64
2019-03-28T19:06:14.687Z,9.57
2019-03-28T19:08:41.601Z,9.45
2019-03-28T19:11:10.211Z,9.41
2019-03-28T19:13:39.654Z,9.43
2019-03-28T19:16:08.284Z,9.44
2019-03-28T19:18:36.791Z,9.32
2019-03-28T19:21:05.380Z,9.24
2019-03-28T19:23:33.876Z,9.22
2019-03-28T19:26:02.485Z,9.20
2019-03-28T19:28:30.980Z,9.11
2019-03-28T19:30:59.491Z,9.02
2019-03-28T19:33:29.003Z,9.06
2019-03-28T19:36:01.336Z,8.98
2019-03-28T19:38:29.493Z,8.96
2019-03-28T19:40:58.608Z,8.93
2019-03-28T19:43:27.612Z,8.91
2019-03-28T19:45:56.110Z,8.91
2019-03-28T19:48:24.629Z,8.89
2019-03-28T19:50:53.117Z,8.90
2019-03-28T19:53:21.616Z,8.86
2019-03-28T19:55:50.106Z,8.75
2019-03-28T19:58:18.627Z,8.67
2019-03-28T20:00:47.416Z,8.64
2019-03-28T20:03:15.951Z,8.57
2019-03-28T20:05:48.086Z,8.56
2019-03-28T20:08:16.426Z,8.50
2019-03-28T20:10:46.519Z,8.41
2019-03-28T20:13:15.042Z,8.32
2019-03-28T20:15:43.534Z,8.31
2019-03-28T20:18:12.125Z,8.30
2019-03-28T20:20:40.696Z,8.27
2019-03-28T20:23:09.254Z,8.22
2019-03-28T20:25:37.763Z,8.25
2019-03-28T20:28:06.787Z,8.19
2019-03-28T20:30:35.442Z,8.16
2019-03-28T20:33:04.460Z,8.11
2019-03-28T20:35:33.016Z,7.96
2019-03-28T20:38:01.517Z,7.99
2019-03-28T20:40:30.007Z,7.99
2019-03-28T20:42:58.617Z,8.00
2019-03-28T20:45:27.114Z,7.91
2019-03-28T20:47:55.614Z,7.77
2019-03-28T20:50:24.573Z,7.64
2019-03-28T20:52:53.057Z,7.61
2019-03-28T20:55:21.537Z,7.70
2019-03-28T20:57:50.152Z,7.67
2019-03-28T21:00:40.062Z,7.65
2019-03-28T21:03:08.817Z,7.63
2019-03-28T21:05:37.441Z,7.47
2019-03-28T21:08:06.186Z,7.49
2019-03-28T21:10:34.680Z,7.56
2019-03-28T21:13:03.203Z,7.60
2019-03-28T21:15:31.722Z,7.57
2019-03-28T21:18:00.973Z,7.60
2019-03-28T21:20:29.598Z,7.53
2019-03-28T21:22:58.087Z,7.50
2019-03-28T21:25:29.470Z,7.49
2019-03-28T21:27:56.839Z,7.47
2019-03-28T21:30:27.072Z,7.40
2019-03-28T21:32:57.665Z,7.22
2019-03-28T21:35:25.881Z,7.27
2019-03-28T21:37:54.502Z,7.29
2019-03-28T21:40:23.008Z,7.33
2019-03-28T21:42:51.562Z,7.27
2019-03-28T21:45:20.047Z,7.37
2019-03-28T21:47:48.585Z,7.34
2019-03-28T21:50:17.079Z,7.34
2019-03-28T21:52:45.572Z,7.26
2019-03-28T21:55:14.226Z,7.24
2019-03-28T21:57:42.840Z,7.23
2019-03-28T22:00:12.635Z,7.18
2019-03-28T22:02:41.139Z,7.14
2019-03-28T22:05:09.975Z,7.05
2019-03-28T22:07:38.496Z,7.07
2019-03-28T22:10:08.923Z,6.99
2019-03-28T22:12:37.622Z,7.01
2019-03-28T22:15:09.428Z,6.91
2019-03-28T22:17:37.218Z,6.93
2019-03-28T22:20:07.643Z,6.90
2019-03-28T22:22:36.150Z,6.95
2019-03-28T22:25:06.723Z,6.94
2019-03-28T22:27:35.211Z,6.89
2019-03-28T22:30:04.108Z,6.89
2019-03-28T22:32:32.602Z,6.91
2019-03-28T22:35:01.119Z,6.85
2019-03-28T22:37:31.691Z,6.79
2019-03-28T22:40:00.487Z,6.68
2019-03-28T22:42:28.960Z,6.62
2019-03-28T22:44:57.493Z,6.73
2019-03-28T22:47:26.036Z,6.78
2019-03-28T22:49:54.525Z,6.70
2019-03-28T22:52:23.083Z,6.70
2019-03-28T22:54:51.522Z,6.62
2019-03-28T22:57:20.057Z,6.59
2019-03-28T22:59:48.563Z,6.60
2019-03-28T23:02:17.056Z,6.63
2019-03-28T23:04:45.626Z,6.58
2019-03-28T23:07:14.587Z,6.53
2019-03-28T23:09:43.339Z,6.47
2019-03-28T23:12:11.844Z,6.46
2019-03-28T23:14:40.335Z,6.46
2019-03-28T23:17:08.946Z,6.46
2019-03-28T23:19:37.436Z,6.48
2019-03-28T23:22:05.957Z,6.46
2019-03-28T23:24:34.465Z,6.43
2019-03-28T23:27:02.984Z,6.41
2019-03-28T23:29:31.490Z,6.33
2019-03-28T23:31:59.993Z,6.27
2019-03-28T23:34:28.486Z,6.34
2019-03-28T23:36:56.990Z,6.32
2019-03-28T23:39:25.531Z,6.31
2019-03-28T23:41:53.984Z,6.44
2019-03-28T23:44:22.503Z,6.13
2019-03-28T23:46:51.002Z,6.27
2019-03-28T23:49:19.577Z,6.22
2019-03-28T23:51:48.246Z,6.23
2019-03-28T23:54:16.744Z,6.21
2019-03-28T23:56:45.241Z,6.12
2019-03-28T23:59:13.749Z,6.18
